首页
METAR-TAF:

METAR-TAF

机场 :

伊利, 宾夕法尼亚州, 美国

纬度: 42-04-48N, 经度: 080-10-57W, 海拔: 223米

当前天气观测

该预报发布于32分钟前的13:51 UTC
风速13节,风向东南,有时为26节阵风
温度 6°C
湿度 56%
气压 1003 hPa
能見度: 16.1公里
多云层高于11000英尺

METAR: KERI 151351Z 14013G26KT 10SM BKN110 06/M02 A2961 RMK AO2 PK WND 14026/1348 SLP031 T00611022

时间: 09:23 (14:23 UTC)

预报

该预报发布于3小时和3分钟前的11:20 UTC
预报有效从15日的 12点(UTC)到 16日的 12点(UTC)
风速15节,风向东南
能見度: 10公里
阴天层高于15000英尺
从 15日的 1500点(UTC)
风速17节,风向南转南东,有时为25节阵风
能見度: 10公里
散云层高于3000英尺
阴天层高于7000英尺
从 15日的 2000点(UTC)
风速11节,风向
能見度: 10公里
散云层高于500英尺
阴天层高于2500英尺
小雨
从 16日的 0200点(UTC)
风速11节,风向南转西南
能見度: 4.8公里
散云层高于500英尺
阴天层高于1500英尺
小雨, 雪
从 16日的 0400点(UTC)
风速8节,风向
能見度: 10公里
散云层高于500英尺
阴天层高于2000英尺

TAF: KERI 151120Z 1512/1612 14015KT P6SM OVC150 FM151500 15017G25KT P6SM SCT030 OVC070 FM152000 18011KT P6SM -RA SCT005 OVC025 FM160200 21011KT 3SM -RASN SCT005 OVC015 FM160400 18008KT P6SM SCT005 OVC020

超过4000个机场的气象观测和天气预报(METAR&TAF报告)。

可查询的气象台以黄色和红色小点在地图上表示。

将鼠标移到小点上方,可查看气象台名称。

然后点击查看天气观测和预报。

如需切换地图:点击带黑十字的绿色按钮放大地图;点击带横线的绿色按钮缩小地图;或者点击绿色箭头查看邻近地区的地图。


METAR-TAF: